This is the latest recevied weather packets stored in our database for station/object IZ3VCM. If no packets are shown the sender has not sent any weather packets the latest 10 day(s).
| Time | Temp. | Humidity | Pressure | Rain* | Wind** | Luminosity | Snow |
|---|---|---|---|---|---|---|---|
| 1777455904 | 23.89° C | 56% | 1016.1 hPa | 0 mm | - | - | - |
| 1777455006 | 23.33° C | 58% | 1016.2 hPa | 0 mm | - | - | - |
| 1777454104 | 21.67° C | 62% | 1016.4 hPa | 0 mm | - | - | - |
| 1777453206 | 22.22° C | 62% | 1016.5 hPa | 0 mm | - | - | - |
| 1777452304 | 22.78° C | 61% | 1016.4 hPa | 0 mm | - | - | - |
| 1777451406 | 22.78° C | 62% | 1016.2 hPa | 0 mm | - | - | - |
| 1777450504 | 22.22° C | 63% | 1016.2 hPa | 0 mm | - | - | - |
| 1777449606 | 20.56° C | 66% | 1016.2 hPa | 0 mm | - | - | - |
| 1777448704 | 20.56° C | 69% | 1016.1 hPa | 0 mm | - | - | - |
| 1777447805 | 18.89° C | 70% | 1016.1 hPa | 0 mm | - | - | - |
| 1777446904 | 18.33° C | 70% | 1015.8 hPa | 0 mm | - | - | - |
| 1777446007 | 18.33° C | 70% | 1015.7 hPa | 0 mm | - | - | - |
| 1777414505 | 14.44° C | 80% | 1015.1 hPa | 0 mm | - | - | - |
| 1777413607 | 15° C | 79% | 1015 hPa | 0 mm | - | - | - |
| 1777412707 | 15° C | 78% | 1015.1 hPa | 0 mm | - | - | - |
| 1777411807 | 14.44° C | 77% | 1015 hPa | 0 mm | - | - | - |
| 1777410904 | 14.44° C | 76% | 1014.8 hPa | 0 mm | - | - | - |
| 1777410006 | 14.44° C | 75% | 1014.8 hPa | 0 mm | - | - | - |
| 1777409104 | 13.89° C | 76% | 1014.8 hPa | 0 mm | - | - | - |
| 1777408206 | 14.44° C | 74% | 1014.7 hPa | 0 mm | - | - | - |
| 1777407304 | 15° C | 73% | 1014.7 hPa | 0 mm | - | - | - |
| 1777406407 | 15° C | 72% | 1014.6 hPa | 0 mm | - | - | - |
| 1777405504 | 15.56° C | 70% | 1014.6 hPa | 0 mm | - | - | - |
| 1777404606 | 16.67° C | 67% | 1014.5 hPa | 0 mm | - | - | - |
| 1777403704 | 16.67° C | 68% | 1014.3 hPa | 0 mm | - | - | - |
* Rain latest hour (hover to see other rain measurements)
** Current wind speed in m/s (hover to see current wind gust speed)